Flight Track Log - Related Links

Times and Time Zones

All times are in EDT time to prevent confusion due to time zone crossing. See the AFL150 flight status page for this flight to view local times or setup timezone preferences in your user account.

Time Position Orientation Groundspeed Altitude Reporting Facility
EDT Latitude Longitude Course Direction KTS MPH feet Rate Location/Type
Thu 06:45:22 AM 58.0360 34.3400 320° Northwest 434 499 34,000  Level FlightAware ADS-B
Thu 06:46:07 AM 58.1080 34.2290 321° Northwest 435 501 34,000  Level FlightAware ADS-B
Thu 06:47:02 AM 58.1940 34.0960 321° Northwest 437 503 34,000  Level FlightAware ADS-B
Thu 06:47:42 AM 58.2540 34.0020 321° Northwest 436 502 34,000  Level FlightAware ADS-B
Thu 06:48:37 AM 58.3380 33.8710 321° Northwest 435 501 34,000  Level FlightAware ADS-B
Thu 06:49:07 AM 58.3760 33.7830 309° West 430 495 34,000  Level FlightAware ADS-B
Thu 06:49:42 AM 58.4060 33.6690 297° West 431 496 34,000  Level FlightAware ADS-B
Thu 06:50:47 AM 58.4630 33.4570 297° West 433 498 34,000  Level FlightAware ADS-B
Thu 06:51:27 AM 58.4940 33.3410 297° West 433 498 34,000  Level FlightAware ADS-B
Thu 06:52:07 AM 58.5250 33.2250 297° West 433 498 34,000  Level FlightAware ADS-B
Thu 06:52:47 AM 58.5560 33.1080 297° West 433 498 34,000  Level FlightAware ADS-B
Thu 06:53:27 AM 58.5870 32.9920 297° West 433 498 34,000  Level FlightAware ADS-B
Thu 06:54:17 AM 58.6260 32.8460 297° West 433 498 34,000  Level FlightAware ADS-B
Thu 06:54:57 AM 58.6560 32.7300 296° West 433 498 34,000  Level FlightAware ADS-B
Thu 06:55:37 AM 58.6870 32.6130 297° West 433 498 34,000  Level FlightAware ADS-B
Thu 06:56:17 AM 58.7180 32.4960 297° West 433 498 34,000  Level FlightAware ADS-B
Thu 06:56:57 AM 58.7490 32.3790 297° West 433 498 34,000  Level FlightAware ADS-B
Thu 06:57:47 AM 58.7880 32.2330 297° West 433 498 34,000  Level FlightAware ADS-B
Thu 06:58:27 AM 58.8190 32.1160 297° West 433 498 34,000  Level FlightAware ADS-B
Thu 06:59:07 AM 58.8500 31.9980 297° West 433 498 34,000  Level FlightAware ADS-B
Thu 06:59:47 AM 58.8800 31.8810 296° West 433 498 34,000  Level FlightAware ADS-B
Thu 07:02:00 AM 59.0094 31.4781 302° West  Level Estimated
Thu 07:03:00 AM 59.0674 31.2953 302° West  Level Estimated
Thu 07:04:00 AM 59.1251 31.1119 302° West  Level Estimated
Thu 07:05:00 AM 59.1826 30.9279 301° West  Level Estimated
Thu 07:06:00 AM 59.2398 30.7433 301° West  Level Estimated
Thu 07:07:00 AM 59.2968 30.5581 301° West  Level Estimated
Thu 07:07:22 AM 59.3400 29.9800 301° West 438 504 34,000  Level FlightAware ADS-B
Thu 07:08:02 AM 59.3770 29.8190 294° West 438 504 34,000  Level FlightAware ADS-B
Thu 07:08:42 AM 59.4080 29.6840 294° West 442 509 34,000  Level FlightAware ADS-B
Thu 07:09:22 AM 59.4440 29.5280 294° West 442 509 34,000  Level FlightAware ADS-B
Thu 07:10:07 AM 59.4820 29.3600 294° West 441 507 34,000  Level FlightAware ADS-B
Thu 07:10:47 AM 59.5140 29.2170 294° West 441 507 34,000  Level FlightAware ADS-B
Thu 07:11:32 AM 59.5510 29.0530 294° West 441 507 34,000  Level FlightAware ADS-B
Thu 07:12:12 AM 59.5830 28.9100 294° West 440 506 34,000  Level FlightAware ADS-B
Thu 07:12:57 AM 59.6160 28.7470 292° West 437 503 34,000  Level FlightAware ADS-B
Thu 07:13:32 AM 59.6380 28.6020 287° West 438 504 34,000  Level FlightAware ADS-B
Thu 07:14:17 AM 59.6620 28.4390 286° West 439 505 34,000  Level FlightAware ADS-B
Thu 07:16:00 AM 59.7540 28.1102 299° West  Level Estimated
Thu 07:16:17 AM 59.7280 27.9730 299° West 437 503 34,000  Level FlightAware ADS-B
Thu 07:17:37 AM 59.7690 27.6850 286° West 439 505 34,000  Level FlightAware ADS-B
Thu 07:18:12 AM 59.7900 27.5290 285° West 441 507 34,000 525 Level FlightAware ADS-B
Thu 07:18:57 AM 59.8140 27.3540 285° West 441 507 34,700 918 Climbing FlightAware ADS-B
Thu 07:19:37 AM 59.8340 27.2060 285° West 437 503 35,300 825 Climbing FlightAware ADS-B
Thu 07:20:17 AM 59.8540 27.0500 284° West 436 502 35,800 494 Climbing FlightAware ADS-B
Thu 07:21:02 AM 59.8770 26.8820 285° West 441 507 36,000 141 Climbing FlightAware ADS-B
Thu 07:21:42 AM 59.8970 26.7220 284° West 441 507 36,000  Level FlightAware ADS-B
Thu 07:22:57 AM 59.9370 26.4220 285° West 439 505 36,000  Level FlightAware ADS-B
Thu 07:23:52 AM 59.9770 26.2220 292° West 438 504 36,000  Level FlightAware ADS-B
Thu 07:24:32 AM 60.0170 26.0890 301° West 436 502 36,000  Level FlightAware ADS-B
Thu 07:25:17 AM 60.0750 25.9480 310° West 435 501 36,000  Level FlightAware ADS-B
Thu 07:26:12 AM 60.1380 25.7540 303° West 424 488 36,000  Level FlightAware ADS-B
Thu 07:26:47 AM 60.1640 25.6340 294° West 425 489 36,000  Level FlightAware ADS-B
Thu 07:27:32 AM 60.2040 25.4510 294° West 429 494 36,000  Level FlightAware ADS-B
Thu 07:30:00 AM 60.3252 24.9589 297° West  Level Estimated
Thu 07:30:22 AM 60.3350 24.8400 297° West 426 490 36,000  Level FlightAware ADS-B
Thu 07:33:00 AM 60.4619 24.3101 296° West  Level Estimated
Thu 07:34:00 AM 60.5095 24.1077 296° West  Level Estimated
Thu 07:34:32 AM 60.5460 23.9170 296° West 425 489 36,000  Level FlightAware ADS-B
Thu 07:36:17 AM 60.6380 23.5570 298° West 431 496 36,000  Level FlightAware ADS-B
Thu 07:36:57 AM 60.6780 23.3980 297° West 432 497 36,000  Level FlightAware ADS-B
Thu 07:37:37 AM 60.7080 23.2750 297° West 432 497 36,000  Level FlightAware ADS-B
Thu 07:38:17 AM 60.7450 23.1260 297° West 433 498 36,000  Level FlightAware ADS-B
Thu 07:39:17 AM 60.8000 22.9060 297° West 434 499 36,000  Level FlightAware ADS-B
Thu 07:39:52 AM 60.8300 22.7830 297° West 433 498 36,000  Level FlightAware ADS-B
Thu 07:40:42 AM 60.8760 22.5930 297° West 432 497 36,000  Level FlightAware ADS-B
Thu 07:41:22 AM 60.9130 22.4380 296° West 435 501 36,000  Level FlightAware ADS-B
Thu 07:42:07 AM 60.9530 22.2710 296° West 437 503 36,000  Level FlightAware ADS-B
Thu 07:43:17 AM 61.0140 22.0160 296° West 439 505 36,000  Level FlightAware ADS-B
Thu 07:43:57 AM 61.0520 21.8510 296° West 441 507 36,000  Level FlightAware ADS-B
Thu 07:44:42 AM 61.0920 21.6800 296° West 442 509 36,000  Level FlightAware ADS-B
Thu 07:45:22 AM 61.1260 21.5330 296° West 443 510 36,000  Level FlightAware ADS-B
Thu 07:46:02 AM 61.1630 21.3750 296° West 443 510 36,000  Level FlightAware ADS-B
Thu 07:46:47 AM 61.2020 21.2040 295° West 444 511 36,000  Level FlightAware ADS-B
Thu 07:47:27 AM 61.2380 21.0460 295° West 446 513 36,000  Level FlightAware ADS-B
Thu 07:48:12 AM 61.2760 20.8750 295° West 445 512 36,000  Level FlightAware ADS-B
Thu 07:48:52 AM 61.3100 20.7230 295° West 445 512 36,000  Level FlightAware ADS-B
Thu 07:49:32 AM 61.3450 20.5660 295° West 445 512 36,000  Level FlightAware ADS-B
Thu 07:50:17 AM 61.3840 20.3860 294° West 447 514 36,000  Level FlightAware ADS-B
Thu 07:50:57 AM 61.4190 20.2290 295° West 447 514 36,000  Level FlightAware ADS-B
Thu 07:51:37 AM 61.4520 20.0720 294° West 450 518 36,000  Level FlightAware ADS-B
Thu 07:52:22 AM 61.4890 19.9020 295° West 452 520 36,000  Level FlightAware ADS-B
Thu 07:53:02 AM 61.5230 19.7440 294° West 453 521 36,000  Level FlightAware ADS-B
Thu 07:53:47 AM 61.5610 19.5610 294° West 452 520 36,000  Level FlightAware ADS-B
Thu 07:54:27 AM 61.5950 19.4000 294° West 450 518 36,000  Level FlightAware ADS-B
Thu 07:55:02 AM 61.6230 19.2650 294° West 448 516 36,000  Level FlightAware ADS-B
Thu 07:55:52 AM 61.6620 19.0760 294° West 449 517 36,000  Level FlightAware ADS-B
Thu 07:56:32 AM 61.6960 18.9130 294° West 450 518 36,000  Level FlightAware ADS-B
Thu 07:57:17 AM 61.7330 18.7290 293° West 452 520 36,000  Level FlightAware ADS-B
Thu 07:57:57 AM 61.7660 18.5670 293° West 453 521 36,000  Level FlightAware ADS-B
Thu 07:58:37 AM 61.7990 18.4010 293° West 454 522 36,000  Level FlightAware ADS-B
Thu 07:59:22 AM 61.8360 18.2140 293° West 454 522 36,000  Level FlightAware ADS-B
Thu 07:59:57 AM 61.8630 18.0730 292° West 451 519 36,000  Level FlightAware ADS-B
Thu 08:00:27 AM 61.8880 17.9490 293° West 451 519 36,000  Level FlightAware ADS-B
Thu 08:01:07 AM 61.9190 17.7840 292° West 450 518 36,000  Level FlightAware ADS-B
Thu 08:01:47 AM 61.9520 17.6160 293° West 451 519 36,000  Level FlightAware ADS-B
Thu 08:02:27 AM 61.9830 17.4530 292° West 451 519 36,000  Level FlightAware ADS-B
Thu 08:03:07 AM 62.0130 17.2930 292° West 450 518 36,000  Level FlightAware ADS-B
Thu 08:03:47 AM 62.0450 17.1220 292° West 450 518 36,000  Level FlightAware ADS-B
Thu 08:04:27 AM 62.0750 16.9610 292° West 453 521 36,000  Level FlightAware ADS-B
Thu 08:05:07 AM 62.1060 16.7910 291° West 450 518 36,000  Level FlightAware ADS-B
Thu 08:05:47 AM 62.1360 16.6300 292° West 450 518 36,000  Level FlightAware ADS-B
Thu 08:06:32 AM 62.1700 16.4400 291° West 452 520 36,000  Level FlightAware ADS-B
Thu 08:07:12 AM 62.2010 16.2660 291° West 453 521 36,000  Level FlightAware ADS-B
Thu 08:07:57 AM 62.2350 16.0750 291° West 454 522 36,000  Level FlightAware ADS-B
Thu 08:08:37 AM 62.2650 15.9060 291° West 453 521 36,000  Level FlightAware ADS-B
Thu 08:09:17 AM 62.2940 15.7380 290° West 454 522 36,000  Level FlightAware ADS-B
Thu 08:10:02 AM 62.3240 15.5650 291° West 450 518 36,000  Level FlightAware ADS-B
Thu 08:10:42 AM 62.3540 15.3910 290° West 450 518 36,000  Level FlightAware ADS-B
Thu 08:11:22 AM 62.3820 15.2220 290° West 448 516 36,000  Level FlightAware ADS-B
Thu 08:12:07 AM 62.4140 15.0330 290° West 449 517 36,000  Level FlightAware ADS-B
Thu 08:12:47 AM 62.4420 14.8620 290° West 448 516 36,000  Level FlightAware ADS-B
Thu 08:13:32 AM 62.4740 14.6720 290° West 448 516 36,000  Level FlightAware ADS-B
Thu 08:14:12 AM 62.5010 14.5020 289° West 452 520 36,000  Level FlightAware ADS-B
Thu 08:14:42 AM 62.5220 14.3750 290° West 454 522 36,000  Level FlightAware ADS-B
Thu 08:15:22 AM 62.5500 14.2020 289° West 454 522 36,000  Level FlightAware ADS-B
Thu 08:16:07 AM 62.5810 14.0080 289° West 454 522 36,000  Level FlightAware ADS-B
Thu 08:16:47 AM 62.6070 13.8370 288° West 454 522 36,000  Level FlightAware ADS-B
Thu 08:17:32 AM 62.6360 13.6520 289° West 454 522 36,000  Level FlightAware ADS-B
Thu 08:18:12 AM 62.6630 13.4790 289° West 454 522 36,000  Level FlightAware ADS-B
Thu 08:18:52 AM 62.6890 13.3070 288° West 452 520 36,000  Level FlightAware ADS-B
Thu 08:19:32 AM 62.7170 13.1220 288° West 453 521 36,000  Level FlightAware ADS-B
Thu 08:20:17 AM 62.7460 12.9250 288° West 454 522 36,000  Level FlightAware ADS-B
Thu 08:21:02 AM 62.7750 12.7300 288° West 455 524 36,000  Level FlightAware ADS-B
Thu 08:21:42 AM 62.8010 12.5500 288° West 455 524 36,000  Level FlightAware ADS-B
Thu 08:22:22 AM 62.8270 12.3730 288° West 455 524 36,000  Level FlightAware ADS-B
Thu 08:23:07 AM 62.8550 12.1720 287° West 457 526 36,000  Level FlightAware ADS-B
Thu 08:23:47 AM 62.8780 12.0090 287° West 458 527 36,000  Level FlightAware ADS-B
Thu 08:24:32 AM 62.9090 11.7930 288° West 458 527 36,000  Level FlightAware ADS-B
Thu 08:25:12 AM 62.9330 11.6170 287° West 460 529 36,000  Level FlightAware ADS-B
Thu 08:25:52 AM 62.9560 11.4490 287° West 461 531 36,000  Level FlightAware ADS-B
Thu 08:26:37 AM 62.9850 11.2360 287° West 462 532 36,000  Level FlightAware ADS-B
Thu 08:27:22 AM 63.0110 11.0390 286° West 463 533 36,000  Level FlightAware ADS-B
Thu 08:28:02 AM 63.0350 10.8550 286° West 463 533 36,000  Level FlightAware ADS-B
Thu 08:28:42 AM 63.0590 10.6730 286° West 463 533 36,000  Level FlightAware ADS-B
Thu 08:29:27 AM 63.0850 10.4690 286° West 462 532 36,000  Level FlightAware ADS-B
Thu 08:30:07 AM 63.1090 10.2840 286° West 464 534 36,000  Level FlightAware ADS-B
Thu 08:30:52 AM 63.1340 10.0810 285° West 465 535 36,000  Level FlightAware ADS-B
Thu 08:31:32 AM 63.1570 9.8950 285° West 467 537 36,000  Level FlightAware ADS-B
Thu 08:32:12 AM 63.1800 9.7110 286° West 468 539 36,000  Level FlightAware ADS-B
Thu 08:32:57 AM 63.2040 9.5060 285° West 466 536 36,000  Level FlightAware ADS-B
Thu 08:33:42 AM 63.2280 9.3040 285° West 466 536 36,000  Level FlightAware ADS-B
Thu 08:34:22 AM 63.2510 9.1150 285° West 467 537 36,000  Level FlightAware ADS-B
Thu 08:35:02 AM 63.2720 8.9280 284° West 469 540 36,000  Level FlightAware ADS-B
Thu 08:35:47 AM 63.2960 8.7260 285° West 470 541 36,000  Level FlightAware ADS-B
Thu 08:36:27 AM 63.3170 8.5330 284° West 472 543 36,000  Level FlightAware ADS-B
Thu 08:37:07 AM 63.3380 8.3470 284° West 472 543 36,000  Level FlightAware ADS-B
Thu 08:37:52 AM 63.3610 8.1380 284° West 473 544 36,000  Level FlightAware ADS-B
Thu 08:38:32 AM 63.3820 7.9450 284° West 474 545 36,000  Level FlightAware ADS-B
Thu 08:39:17 AM 63.4040 7.7400 284° West 471 542 36,000  Level FlightAware ADS-B
Thu 08:39:57 AM 63.4240 7.5470 283° West 470 541 36,000  Level FlightAware ADS-B
Thu 08:40:42 AM 63.4460 7.3360 283° West 470 541 36,000  Level FlightAware ADS-B
Thu 08:41:22 AM 63.4660 7.1430 283° West 468 539 36,000  Level FlightAware ADS-B
Thu 08:41:57 AM 63.4830 6.9760 283° West 468 539 36,000  Level FlightAware ADS-B
Thu 08:42:47 AM 63.5060 6.7460 283° West 470 541 36,000  Level FlightAware ADS-B
Thu 08:43:27 AM 63.5260 6.5390 282° West 470 541 36,000  Level FlightAware ADS-B
Thu 08:44:07 AM 63.5420 6.3690 282° West 471 542 36,000  Level FlightAware ADS-B
Thu 08:44:52 AM 63.5640 6.1370 282° West 472 543 36,000  Level FlightAware ADS-B
Thu 08:45:32 AM 63.5820 5.9460 282° West 471 542 36,000  Level FlightAware ADS-B
Thu 08:46:17 AM 63.6010 5.7330 281° West 469 540 36,000  Level FlightAware ADS-B
Thu 08:46:57 AM 63.6190 5.5390 282° West 469 540 36,000  Level FlightAware ADS-B
Thu 08:47:32 AM 63.6310 5.4010 281° West 469 540 36,000  Level FlightAware ADS-B
Thu 08:48:17 AM 63.6510 5.1680 281° West 470 541 36,000  Level FlightAware ADS-B
Thu 08:48:57 AM 63.6680 4.9770 281° West 470 541 36,000  Level FlightAware ADS-B
Thu 08:49:47 AM 63.6860 4.7620 281° West 471 542 36,000  Level FlightAware ADS-B
Thu 08:50:27 AM 63.7030 4.5490 280° West 471 542 36,000  Level FlightAware ADS-B
Thu 08:51:07 AM 63.7200 4.3430 281° West 472 543 36,000  Level FlightAware ADS-B
Thu 08:51:52 AM 63.7360 4.1380 280° West 472 543 36,000  Level FlightAware ADS-B
Thu 08:52:32 AM 63.7530 3.9300 281° West 472 543 36,000  Level FlightAware ADS-B
Thu 08:53:12 AM 63.7670 3.7400 280° West 471 542 36,000  Level FlightAware ADS-B
Thu 08:53:52 AM 63.7790 3.5810 280° West 472 543 36,000  Level FlightAware ADS-B
Thu 08:54:42 AM 63.7980 3.3180 279° West 473 544 36,000  Level FlightAware ADS-B
Thu 08:55:12 AM 63.8080 3.1790 279° West 473 544 36,000  Level FlightAware ADS-B
Thu 08:56:02 AM 63.8260 2.9260 279° West 471 542 36,000  Level FlightAware ADS-B
Thu 08:56:47 AM 63.8420 2.7030 279° West 470 541 36,000  Level FlightAware ADS-B
Thu 08:57:27 AM 63.8540 2.5150 278° West 470 541 36,000  Level FlightAware ADS-B
Thu 08:58:02 AM 63.8660 2.3400 279° West 471 542 36,000  Level FlightAware ADS-B
Thu 08:58:52 AM 63.8830 2.0850 279° West 470 541 36,000  Level FlightAware ADS-B
Thu 08:59:32 AM 63.8940 1.8990 278° West 471 542 36,000  Level FlightAware ADS-B
Thu 09:00:12 AM 63.9050 1.7340 279° West 471 542 36,000  Level FlightAware ADS-B
Thu 09:00:52 AM 63.9150 1.5670 278° West 471 542 36,000  Level FlightAware ADS-B
Thu 09:01:32 AM 63.9250 1.4000 278° West 471 542 36,000  Level FlightAware ADS-B
Thu 09:02:22 AM 63.9380 1.1910 278° West 471 542 36,000  Level FlightAware ADS-B
Thu 09:03:02 AM 63.9480 1.0240 278° West 471 542 36,000  Level FlightAware ADS-B
Thu 09:03:42 AM 63.9590 0.8570 279° West 471 542 36,000  Level FlightAware ADS-B
Thu 09:04:22 AM 63.9690 0.6900 278° West 471 542 36,000  Level FlightAware ADS-B
Thu 09:05:02 AM 63.9790 0.5230 278° West 471 542 36,000  Level FlightAware ADS-B
Thu 09:05:52 AM 63.9920 0.3140 278° West 471 542 36,000  Level FlightAware ADS-B
Thu 09:06:32 AM 64.0060 -0.1550 274° West 474 545 36,000  Level FlightAware ADS-B
Thu 09:07:17 AM 64.0130 -0.3880 274° West 474 545 36,000  Level FlightAware ADS-B
Thu 09:07:57 AM 64.0190 -0.5810 274° West 474 545 36,000  Level FlightAware ADS-B
Thu 09:08:37 AM 64.0250 -0.7830 274° West 474 545 36,000  Level FlightAware ADS-B
Thu 09:09:22 AM 64.0310 -1.0030 274° West 473 544 36,000  Level FlightAware ADS-B
Thu 09:10:02 AM 64.0370 -1.2020 274° West 472 543 36,000  Level FlightAware ADS-B
Thu 09:10:57 AM 64.0440 -1.4810 273° West 471 542 36,000  Level FlightAware ADS-B
Thu 09:11:42 AM 64.0480 -1.6790 273° West 471 542 36,000  Level FlightAware ADS-B
Thu 09:12:22 AM 64.0530 -1.8960 273° West 470 541 36,000  Level FlightAware ADS-B
Thu 09:13:07 AM 64.0580 -2.1160 273° West 470 541 36,000  Level FlightAware ADS-B
Thu 09:13:52 AM 64.0620 -2.3470 272° West 470 541 36,000  Level FlightAware ADS-B
Thu 09:14:32 AM 64.0660 -2.5380 273° West 470 541 36,000  Level FlightAware ADS-B
Thu 09:15:07 AM 64.0680 -2.7050 272° West 470 541 36,000  Level FlightAware ADS-B
Thu 09:15:52 AM 64.0710 -2.9200 272° West 469 540 36,000  Level FlightAware ADS-B
Thu 09:16:32 AM 64.0720 -3.0880 271° West 469 540 36,000  Level FlightAware ADS-B
Thu 09:17:17 AM 64.0770 -3.3560 273° West 470 541 36,000  Level FlightAware ADS-B
Thu 09:17:57 AM 64.0790 -3.5500 271° West 470 541 36,000  Level FlightAware ADS-B
Thu 09:18:42 AM 64.0810 -3.7790 271° West 469 540 36,000  Level FlightAware ADS-B
Thu 09:19:22 AM 64.0830 -3.9830 271° West 469 540 36,000  Level FlightAware ADS-B
Thu 09:20:02 AM 64.0840 -4.1880 271° West 468 539 36,000  Level FlightAware ADS-B
Thu 09:20:47 AM 64.0850 -4.3950 271° West 469 540 36,000  Level FlightAware ADS-B
Thu 09:21:27 AM 64.0860 -4.5970 271° West 469 540 36,000  Level FlightAware ADS-B
Thu 09:22:12 AM 64.0860 -4.8100 270° West 469 540 36,000  Level FlightAware ADS-B
Thu 09:22:52 AM 64.0860 -5.0240 270° West 469 540 36,000  Level FlightAware ADS-B
Thu 09:23:37 AM 64.0860 -5.2350 270° West 468 539 36,000  Level FlightAware ADS-B
Thu 09:24:17 AM 64.0860 -5.4380 270° West 467 537 36,000  Level FlightAware ADS-B
Thu 09:24:57 AM 64.0850 -5.6300 269° West 466 536 36,000  Level FlightAware ADS-B
Thu 09:25:42 AM 64.0840 -5.8570 270° West 464 534 36,000  Level FlightAware ADS-B
Thu 09:26:22 AM 64.0830 -6.0540 269° West 463 533 36,000  Level FlightAware ADS-B
Thu 09:27:07 AM 64.0810 -6.2660 269° West 464 534 36,000  Level FlightAware ADS-B
Thu 09:27:47 AM 64.0790 -6.4640 269° West 464 534 36,000  Level FlightAware ADS-B
Thu 09:28:27 AM 64.0770 -6.6620 269° West 463 533 36,000  Level FlightAware ADS-B
Thu 09:29:12 AM 64.0740 -6.8810 268° West 461 531 36,000  Level FlightAware ADS-B
Thu 09:29:52 AM 64.0720 -7.0690 269° West 460 529 36,000  Level FlightAware ADS-B
Thu 09:30:37 AM 64.0680 -7.2950 268° West 460 529 36,000  Level FlightAware ADS-B
Thu 09:31:17 AM 64.0650 -7.4870 268° West 460 529 36,000  Level FlightAware ADS-B
Thu 09:31:57 AM 64.0610 -7.6690 267° West 461 531 36,000  Level FlightAware ADS-B
Thu 09:32:37 AM 64.0570 -7.8340 267° West 461 531 36,000  Level FlightAware ADS-B
Thu 09:33:17 AM 64.0540 -8.0000 268° West 461 531 36,000  Level FlightAware ADS-B
Thu 09:33:57 AM 64.0500 -8.1650 267° West 461 531 36,000  Level FlightAware ADS-B
Thu 09:34:47 AM 64.0450 -8.3720 267° West 461 531 36,000  Level FlightAware ADS-B
Thu 09:35:27 AM 64.0410 -8.5370 267° West 461 531 36,000  Level FlightAware ADS-B
Thu 09:36:07 AM 64.0370 -8.7030 267° West 461 531 36,000  Level FlightAware ADS-B
Thu 09:36:47 AM 64.0340 -8.8680 268° West 461 531 36,000  Level FlightAware ADS-B
Thu 09:37:37 AM 64.0290 -9.0750 267° West 461 531 36,000  Level FlightAware ADS-B
Thu 09:38:17 AM 64.0250 -9.2400 267° West 461 531 36,000  Level FlightAware ADS-B
Thu 09:38:57 AM 64.0210 -9.4060 267° West 461 531 36,000  Level FlightAware ADS-B
Thu 09:39:37 AM 64.0170 -9.5710 267° West 461 531 36,000  Level FlightAware ADS-B
Thu 09:40:22 AM 63.9930 -10.1210 265° West 455 524 36,000  Level FlightAware ADS-B
Thu 09:41:02 AM 63.9800 -10.3110 261° West 454 522 36,000  Level FlightAware ADS-B
Thu 09:41:47 AM 63.9670 -10.5210 262° West 454 522 36,000  Level FlightAware ADS-B
Thu 09:42:27 AM 63.9540 -10.7110 261° West 454 522 36,000  Level FlightAware ADS-B
Thu 09:43:12 AM 63.9400 -10.9220 262° West 454 522 36,000  Level FlightAware ADS-B
Thu 09:43:52 AM 63.9260 -11.1110 261° West 454 522 36,000  Level FlightAware ADS-B
Thu 09:44:37 AM 63.9110 -11.3200 261° West 456 525 36,000  Level FlightAware ADS-B
Thu 09:45:17 AM 63.8980 -11.5100 261° West 457 526 36,000  Level FlightAware ADS-B
Thu 09:45:57 AM 63.8840 -11.6980 260° West 457 526 36,000  Level FlightAware ADS-B
Thu 09:46:42 AM 63.8670 -11.9130 260° West 458 527 36,000  Level FlightAware ADS-B
Thu 09:47:22 AM 63.8530 -12.1030 261° West 458 527 36,000  Level FlightAware ADS-B
Thu 09:48:02 AM 63.8390 -12.2760 260° West 457 526 36,000  Level FlightAware ADS-B
Thu 09:48:47 AM 63.8220 -12.4970 260° West 457 526 36,000  Level FlightAware ADS-B
Thu 09:49:27 AM 63.8060 -12.6840 259° West 459 528 36,000  Level FlightAware ADS-B
Thu 09:50:07 AM 63.7910 -12.8740 260° West 460 529 36,000  Level FlightAware ADS-B
Thu 09:50:52 AM 63.7720 -13.0920 259° West 460 529 36,000  Level FlightAware ADS-B
Thu 09:51:32 AM 63.7570 -13.2720 259° West 459 528 36,000  Level FlightAware ADS-B
Thu 09:52:17 AM 63.7380 -13.4830 259° West 459 528 36,000  Level FlightAware ADS-B
Thu 09:52:57 AM 63.7220 -13.6710 259° West 459 528 36,000  Level FlightAware ADS-B
Thu 09:53:42 AM 63.7020 -13.8900 258° West 458 527 36,000  Level FlightAware ADS-B
Thu 09:54:22 AM 63.6860 -14.0650 258° West 457 526 36,000  Level FlightAware ADS-B
Thu 09:55:02 AM 63.6680 -14.2540 258° West 458 527 36,000  Level FlightAware ADS-B
Thu 09:55:47 AM 63.6490 -14.4630 259° West 459 528 36,000  Level FlightAware ADS-B
Thu 09:56:27 AM 63.6300 -14.6520 257° West 460 529 36,000  Level FlightAware ADS-B
Thu 09:57:12 AM 63.6100 -14.8580 258° West 458 527 36,000  Level FlightAware ADS-B
Thu 09:57:52 AM 63.5920 -15.0420 258° West 456 525 36,000  Level FlightAware ADS-B
Thu 09:58:32 AM 63.5730 -15.2330 257° West 454 522 36,000  Level FlightAware ADS-B
Thu 09:59:17 AM 63.5520 -15.4330 257° West 451 519 36,000  Level FlightAware ADS-B
Thu 09:59:57 AM 63.5340 -15.6150 258° West 449 517 36,000  Level FlightAware ADS-B
Thu 10:00:42 AM 63.5120 -15.8160 256° West 449 517 36,000  Level FlightAware ADS-B
Thu 10:01:22 AM 63.4930 -16.0000 257° West 448 516 36,000  Level FlightAware ADS-B
Thu 10:01:57 AM 63.4760 -16.1560 256° West 448 516 36,000  Level FlightAware ADS-B
Thu 10:02:37 AM 63.4560 -16.3360 256° West 450 518 36,000  Level FlightAware ADS-B
Thu 10:03:12 AM 63.4390 -16.4980 257° West 452 520 36,000  Level FlightAware ADS-B
Thu 10:03:52 AM 63.4190 -16.6690 255° West 453 521 36,000  Level FlightAware ADS-B
Thu 10:04:32 AM 63.3990 -16.8520 256° West 454 522 36,000  Level FlightAware ADS-B
Thu 10:05:17 AM 63.3750 -17.0570 255° West 455 524 36,000  Level FlightAware ADS-B
Thu 10:05:47 AM 63.3590 -17.1950 256° West 455 524 36,000  Level FlightAware ADS-B
Thu 10:06:32 AM 63.3360 -17.3950 256° West 455 524 36,000  Level FlightAware ADS-B
Thu 10:07:12 AM 63.3140 -17.5760 255° West 456 525 36,000  Level FlightAware ADS-B
Thu 10:07:57 AM 63.2890 -17.7850 255° West 455 524 36,000  Level FlightAware ADS-B
Thu 10:08:37 AM 63.2680 -17.9600 255° West 453 521 36,000  Level FlightAware ADS-B
Thu 10:09:22 AM 63.2420 -18.1660 254° West 450 518 36,000  Level FlightAware ADS-B
Thu 10:10:02 AM 63.2210 -18.3360 255° West 448 516 36,000  Level FlightAware ADS-B
Thu 10:10:42 AM 63.1980 -18.5190 255° West 447 514 36,000  Level FlightAware ADS-B
Thu 10:11:27 AM 63.1730 -18.7120 254° West 447 514 36,000  Level FlightAware ADS-B
Thu 10:12:07 AM 63.1500 -18.8880 254° West 447 514 36,000  Level FlightAware ADS-B
Thu 10:12:52 AM 63.1240 -19.0890 254° West 445 512 36,000  Level FlightAware ADS-B
Thu 10:13:32 AM 63.1020 -19.2520 253° West 443 510 36,000  Level FlightAware ADS-B
Thu 10:14:12 AM 63.0790 -19.4280 254° West 442 509 36,000  Level FlightAware ADS-B
Thu 10:14:57 AM 63.0520 -19.6240 253° West 441 507 36,000  Level FlightAware ADS-B
Thu 10:15:37 AM 63.0280 -19.7970 253° West 441 507 36,000  Level FlightAware ADS-B
Thu 10:16:17 AM 63.0050 -19.9690 254° West 443 510 36,000  Level FlightAware ADS-B
Thu 10:17:02 AM 62.9900 -20.1610 260° West 446 513 36,000  Level FlightAware ADS-B
Thu 10:17:42 AM 62.9780 -20.3510 262° West 449 517 36,000  Level FlightAware ADS-B
Thu 10:18:22 AM 62.9670 -20.5250 262° West 449 517 36,000  Level FlightAware ADS-B
Thu 10:19:07 AM 62.9530 -20.7290 262° West 447 514 36,000  Level FlightAware ADS-B
Thu 10:19:47 AM 62.9410 -20.9070 262° West 446 513 36,000  Level FlightAware ADS-B
Thu 10:20:32 AM 62.9270 -21.1140 262° West 446 513 36,000  Level FlightAware ADS-B
Thu 10:21:12 AM 62.9140 -21.2940 261° West 445 512 36,000  Level FlightAware ADS-B
Thu 10:21:57 AM 62.9000 -21.4860 261° West 445 512 36,000  Level FlightAware ADS-B
Thu 10:22:37 AM 62.8870 -21.6670 261° West 446 513 36,000  Level FlightAware ADS-B
Thu 10:23:17 AM 62.8740 -21.8450 261° West 447 514 36,000 212 Level FlightAware ADS-B
Thu 10:24:02 AM 62.8590 -22.0400 261° West 446 513 36,300 565 Climbing FlightAware ADS-B
Thu 10:24:42 AM 62.8450 -22.2180 260° West 445 512 36,800 635 Climbing FlightAware ADS-B
Thu 10:25:27 AM 62.8290 -22.4250 260° West 449 517 37,200 565 Climbing FlightAware ADS-B
Thu 10:26:07 AM 62.8150 -22.5980 260° West 450 518 37,600 600 Climbing FlightAware ADS-B
Thu 10:26:47 AM 62.8000 -22.7760 260° West 442 509 38,000 282 Climbing FlightAware ADS-B
Thu 10:27:32 AM 62.7840 -22.9720 260° West 439 505 38,000  Level FlightAware ADS-B
Thu 10:28:12 AM 62.7690 -23.1490 260° West 440 506 38,000  Level FlightAware ADS-B
Thu 10:28:57 AM 62.7520 -23.3430 259° West 443 510 38,000  Level FlightAware ADS-B
Thu 10:29:42 AM 62.7350 -23.5440 260° West 441 507 38,000  Level FlightAware ADS-B
Thu 10:30:22 AM 62.7190 -23.7190 259° West 442 509 38,000  Level FlightAware ADS-B
Thu 10:31:02 AM 62.7040 -23.8880 259° West 443 510 38,000  Level FlightAware ADS-B
Thu 10:31:47 AM 62.6860 -24.0840 259° West 446 513 38,000  Level FlightAware ADS-B
Thu 10:32:27 AM 62.6690 -24.2620 258° West 447 514 38,000  Level FlightAware ADS-B
Thu 10:33:07 AM 62.6530 -24.4390 259° West 447 514 38,000  Level FlightAware ADS-B
Thu 10:33:52 AM 62.6340 -24.6320 258° West 445 512 38,000  Level FlightAware ADS-B
Thu 10:34:32 AM 62.6160 -24.8150 258° West 444 511 38,000  Level FlightAware ADS-B
Thu 10:35:17 AM 62.5970 -25.0060 258° West 444 511 38,000  Level FlightAware ADS-B
Thu 10:35:57 AM 62.5800 -25.1790 258° West 444 511 38,000  Level FlightAware ADS-B
Thu 10:36:42 AM 62.5600 -25.3750 258° West 446 513 38,000  Level FlightAware ADS-B
Thu 10:37:17 AM 62.5450 -25.5260 258° West 448 516 38,000  Level FlightAware ADS-B
Thu 10:38:02 AM 62.5240 -25.7280 257° West 451 519 38,000  Level FlightAware ADS-B
Thu 10:38:42 AM 62.5070 -25.8880 257° West 451 519 38,000  Level FlightAware ADS-B
Thu 10:39:27 AM 62.4840 -26.0970 257° West 450 518 38,000  Level FlightAware ADS-B
Thu 10:40:07 AM 62.4660 -26.2690 257° West 451 519 38,000  Level FlightAware ADS-B
Thu 10:40:52 AM 62.4440 -26.4670 257° West 450 518 38,000  Level FlightAware ADS-B
Thu 10:41:32 AM 62.4240 -26.6440 256° West 451 519 38,000  Level FlightAware ADS-B
Thu 10:42:17 AM 62.4020 -26.8370 256° West 451 519 38,000  Level FlightAware ADS-B
Thu 10:42:57 AM 62.3820 -27.0120 256° West 451 519 38,000  Level FlightAware ADS-B
Thu 10:43:42 AM 62.3590 -27.2050 256° West 451 519 38,000  Level FlightAware ADS-B
Thu 10:44:22 AM 62.3380 -27.3840 256° West 453 521 38,000  Level FlightAware ADS-B
Thu 10:45:07 AM 62.3150 -27.5770 256° West 453 521 38,000  Level FlightAware ADS-B
Thu 10:45:47 AM 62.2950 -27.7490 256° West 452 520 38,000  Level FlightAware ADS-B
Thu 10:46:27 AM 62.2740 -27.9220 255° West 454 522 38,000  Level FlightAware ADS-B
Thu 10:47:22 AM 62.2450 -28.1490 255° West 455 524 38,000  Level FlightAware ADS-B
Thu 10:48:07 AM 62.2190 -28.3570 255° West 456 525 38,000  Level FlightAware ADS-B
Thu 10:49:02 AM 62.1880 -28.6000 255° West 456 525 38,000  Level FlightAware ADS-B
Thu 10:49:42 AM 62.1680 -28.7600 255° West 456 525 38,000  Level FlightAware ADS-B
Thu 10:50:27 AM 62.1440 -28.9380 254° West 456 525 38,000  Level FlightAware ADS-B
Thu 10:51:07 AM 62.1240 -29.0850 254° West 456 525 38,000  Level FlightAware ADS-B
Thu 10:51:47 AM 62.1040 -29.2320 254° West 456 525 38,000  Level FlightAware ADS-B
Thu 10:52:27 AM 62.0850 -29.3800 255° West 456 525 38,000  Level FlightAware ADS-B
Thu 10:53:07 AM 62.0650 -29.5270 254° West 456 525 38,000  Level FlightAware ADS-B
Thu 10:53:57 AM 62.0400 -29.7110 254° West 456 525 38,000  Level FlightAware ADS-B
Thu 10:54:37 AM 62.0200 -29.8580 254° West 456 525 38,000  Level FlightAware ADS-B
Thu 10:55:17 AM 62.0000 -30.0050 254° West 456 525 38,000  Level FlightAware ADS-B
Thu 10:55:57 AM 61.9810 -30.1520 255° West 456 525 38,000  Level FlightAware ADS-B
Thu 10:56:37 AM 61.9610 -30.2980 254° West 456 525 38,000  Level FlightAware ADS-B
Thu 10:57:27 AM 61.9360 -30.4820 254° West 456 525 38,000  Level FlightAware ADS-B
Thu 10:58:07 AM 61.9160 -30.6280 254° West 456 525 38,000  Level FlightAware ADS-B
Thu 10:58:47 AM 61.8970 -30.7740 255° West 456 525 38,000  Level FlightAware ADS-B
Thu 10:59:27 AM 61.8770 -30.9210 254° West 456 525 38,000  Level FlightAware ADS-B
Thu 11:02:00 AM 61.7611 -31.4647 246° West  Level Estimated
Thu 11:03:00 AM 61.7151 -31.6768 245° Southwest  Level Estimated
Thu 11:04:00 AM 61.6688 -31.8882 245° Southwest  Level Estimated
Thu 11:05:00 AM 61.6221 -32.0990 245° Southwest  Level Estimated
Thu 11:06:00 AM 61.5751 -32.3092 245° Southwest  Level Estimated
Thu 11:07:00 AM 61.5278 -32.5188 245° Southwest  Level Estimated
Thu 11:08:00 AM 61.4801 -32.7277 245° Southwest  Level Estimated
Thu 11:09:00 AM 61.4322 -32.9359 244° Southwest  Level Estimated
Thu 11:10:00 AM 61.3839 -33.1436 244° Southwest  Level Estimated
Thu 11:11:00 AM 61.3353 -33.3505 244° Southwest  Level Estimated
Thu 11:12:00 AM 61.2864 -33.5569 244° Southwest  Level Estimated
Thu 11:13:00 AM 61.2372 -33.7626 244° Southwest  Level Estimated
Thu 11:14:00 AM 61.1876 -33.9676 243° Southwest  Level Estimated
Thu 11:15:00 AM 61.1378 -34.1720 243° Southwest  Level Estimated
Thu 11:16:00 AM 61.0877 -34.3758 243° Southwest  Level Estimated
Thu 11:17:00 AM 61.0372 -34.5789 243° Southwest  Level Estimated
Thu 11:18:00 AM 60.9865 -34.7813 243° Southwest  Level Estimated
Thu 11:19:00 AM 60.9354 -34.9831 243° Southwest  Level Estimated
Thu 11:20:00 AM 60.8840 -35.1843 242° Southwest  Level Estimated
Thu 11:21:00 AM 60.8324 -35.3848 242° Southwest  Level Estimated
Thu 11:22:00 AM 60.7804 -35.5847 242° Southwest  Level Estimated
Thu 11:23:00 AM 60.7282 -35.7839 242° Southwest  Level Estimated
Thu 11:24:00 AM 60.6756 -35.9825 242° Southwest  Level Estimated
Thu 11:25:00 AM 60.6228 -36.1804 242° Southwest  Level Estimated
Thu 11:26:00 AM 60.5697 -36.3777 241° Southwest  Level Estimated
Thu 11:27:00 AM 60.5162 -36.5743 241° Southwest  Level Estimated
Thu 11:28:00 AM 60.4625 -36.7703 241° Southwest  Level Estimated
Thu 11:29:00 AM 60.4085 -36.9656 241° Southwest  Level Estimated
Thu 11:30:00 AM 60.3543 -37.1603 241° Southwest  Level Estimated
Thu 11:31:00 AM 60.2997 -37.3543 240° Southwest  Level Estimated
Thu 11:32:00 AM 60.2449 -37.5477 240° Southwest  Level Estimated
Thu 11:33:00 AM 60.1897 -37.7404 240° Southwest  Level Estimated
Thu 11:34:00 AM 60.1343 -37.9325 240° Southwest  Level Estimated
Thu 11:35:00 AM 60.0787 -38.1239 240° Southwest  Level Estimated
Thu 11:36:00 AM 60.0227 -38.3147 240° Southwest  Level Estimated
Thu 11:37:00 AM 59.9665 -38.5048 239° Southwest  Level Estimated
Thu 11:38:00 AM 59.9100 -38.6944 239° Southwest  Level Estimated
Thu 11:39:00 AM 59.8532 -38.8832 239° Southwest  Level Estimated
Thu 11:40:00 AM 59.7962 -39.0714 239° Southwest  Level Estimated
Thu 11:41:00 AM 59.7388 -39.2590 239° Southwest  Level Estimated
Thu 11:42:00 AM 59.6813 -39.4459 239° Southwest  Level Estimated
Thu 11:43:00 AM 59.6234 -39.6322 239° Southwest  Level Estimated
Thu 11:44:00 AM 59.5653 -39.8178 238° Southwest  Level Estimated
Thu 11:45:00 AM 59.5070 -40.0028 238° Southwest  Level Estimated
Thu 11:46:00 AM 59.4483 -40.1871 238° Southwest  Level Estimated
Thu 11:47:00 AM 59.3894 -40.3708 238° Southwest  Level Estimated
Thu 11:48:00 AM 59.3303 -40.5539 238° Southwest  Level Estimated
Thu 11:49:00 AM 59.2709 -40.7364 238° Southwest  Level Estimated
Thu 11:50:00 AM 59.2113 -40.9182 237° Southwest  Level Estimated
Thu 11:51:00 AM 59.1513 -41.0993 237° Southwest  Level Estimated
Thu 11:52:00 AM 59.0912 -41.2798 237° Southwest  Level Estimated
Thu 11:53:00 AM 59.0308 -41.4597 237° Southwest  Level Estimated
Thu 11:54:00 AM 58.9701 -41.6390 237° Southwest  Level Estimated
Thu 11:55:00 AM 58.9092 -41.8176 237° Southwest  Level Estimated
Thu 11:56:00 AM 58.8481 -41.9956 236° Southwest  Level Estimated
Thu 11:57:00 AM 58.7867 -42.1730 236° Southwest  Level Estimated
Thu 11:58:00 AM 58.7251 -42.3498 236° Southwest  Level Estimated
Thu 11:59:00 AM 58.6632 -42.5259 236° Southwest  Level Estimated
Thu 12:00:00 PM 58.6011 -42.7014 236° Southwest  Level Estimated
Thu 12:01:00 PM 58.5387 -42.8762 236° Southwest  Level Estimated
Thu 12:02:00 PM 58.4761 -43.0505 236° Southwest  Level Estimated
Thu 12:03:00 PM 58.4133 -43.2241 235° Southwest  Level Estimated
Thu 12:04:00 PM 58.3503 -43.3971 235° Southwest  Level Estimated
Thu 12:05:00 PM 58.2870 -43.5695 235° Southwest  Level Estimated
Thu 12:06:00 PM 58.2234 -43.7413 235° Southwest  Level Estimated
Thu 12:07:00 PM 58.1597 -43.9125 235° Southwest  Level Estimated
Thu 12:08:00 PM 58.0957 -44.0830 235° Southwest  Level Estimated
Thu 12:09:00 PM 58.0315 -44.2529 235° Southwest  Level Estimated
Thu 12:10:00 PM 57.9671 -44.4223 234° Southwest  Level Estimated
Thu 12:11:00 PM 57.9024 -44.5910 234° Southwest  Level Estimated
Thu 12:12:00 PM 57.8375 -44.7591 234° Southwest  Level Estimated
Thu 12:13:00 PM 57.7724 -44.9266 234° Southwest  Level Estimated
Thu 12:14:00 PM 57.7071 -45.0935 234° Southwest  Level Estimated
Thu 12:15:00 PM 57.6416 -45.2598 234° Southwest  Level Estimated
Thu 12:16:00 PM 57.5758 -45.4255 234° Southwest  Level Estimated
Thu 12:17:00 PM 57.5098 -45.5906 233° Southwest  Level Estimated
Thu 12:18:00 PM 57.4436 -45.7551 233° Southwest  Level Estimated
Thu 12:19:00 PM 57.3773 -45.9190 233° Southwest  Level Estimated
Thu 12:20:00 PM 57.3106 -46.0823 233° Southwest  Level Estimated
Thu 12:21:00 PM 57.2438 -46.2450 233° Southwest  Level Estimated
Thu 12:22:00 PM 57.1768 -46.4072 233° Southwest  Level Estimated
Thu 12:23:00 PM 57.1096 -46.5687 233° Southwest  Level Estimated
Thu 12:24:00 PM 57.0421 -46.7297 232° Southwest  Level Estimated
Thu 12:25:00 PM 56.9744 -46.8900 232° Southwest  Level Estimated
Thu 12:26:00 PM 56.9066 -47.0498 232° Southwest  Level Estimated
Thu 12:27:00 PM 56.8385 -47.2090 232° Southwest  Level Estimated
Thu 12:28:00 PM 56.7703 -47.3677 232° Southwest  Level Estimated
Thu 12:29:00 PM 56.7018 -47.5257 232° Southwest  Level Estimated
Thu 12:30:00 PM 56.6331 -47.6832 232° Southwest  Level Estimated
Thu 12:31:00 PM 56.5643 -47.8401 232° Southwest  Level Estimated
Thu 12:32:00 PM 56.4952 -47.9965 231° Southwest  Level Estimated
Thu 12:33:00 PM 56.4260 -48.1522 231° Southwest  Level Estimated
Thu 12:34:00 PM 56.3565 -48.3074 231° Southwest  Level Estimated
Thu 12:35:00 PM 56.2869 -48.4621 231° Southwest  Level Estimated
Thu 12:36:00 PM 56.2170 -48.6161 231° Southwest  Level Estimated
Thu 12:37:00 PM 56.1470 -48.7697 231° Southwest  Level Estimated
Thu 12:38:00 PM 56.0768 -48.9226 231° Southwest  Level Estimated
Thu 12:39:00 PM 56.0064 -49.0750 230° Southwest  Level Estimated
Thu 12:40:00 PM 55.9358 -49.2268 230° Southwest  Level Estimated
Thu 12:41:00 PM 55.8650 -49.3781 230° Southwest  Level Estimated
Thu 12:42:00 PM 55.7941 -49.5289 230° Southwest  Level Estimated
Thu 12:43:00 PM 55.7229 -49.6791 230° Southwest  Level Estimated
Thu 12:44:00 PM 55.6516 -49.8287 230° Southwest  Level Estimated
Thu 12:45:00 PM 55.5801 -49.9778 230° Southwest  Level Estimated
Thu 12:46:00 PM 55.5084 -50.1264 230° Southwest  Level Estimated
Thu 12:47:00 PM 55.4365 -50.2744 229° Southwest  Level Estimated
Thu 12:48:00 PM 55.3645 -50.4218 229° Southwest  Level Estimated
Thu 12:49:00 PM 55.2923 -50.5688 229° Southwest  Level Estimated
Thu 12:50:00 PM 55.2199 -50.7152 229° Southwest  Level Estimated
Thu 12:51:00 PM 55.1473 -50.8610 229° Southwest  Level Estimated
Thu 12:52:00 PM 55.0745 -51.0064 229° Southwest  Level Estimated
Thu 12:53:00 PM 55.0016 -51.1512 229° Southwest  Level Estimated
Thu 12:54:00 PM 54.9285 -51.2955 229° Southwest  Level Estimated
Thu 12:55:00 PM 54.8553 -51.4392 229° Southwest  Level Estimated
Thu 12:56:00 PM 54.7818 -51.5825 228° Southwest  Level Estimated
Thu 12:57:00 PM 54.7082 -51.7252 228° Southwest  Level Estimated
Thu 12:58:00 PM 54.6345 -51.8674 228° Southwest  Level Estimated
Thu 12:59:00 PM 54.5605 -52.0091 228° Southwest  Level Estimated
Thu 01:00:00 PM 54.4864 -52.1503 228° Southwest  Level Estimated
Thu 01:01:00 PM 54.4122 -52.2909 228° Southwest  Level Estimated
Thu 01:02:00 PM 54.3378 -52.4311 228° Southwest  Level Estimated
Thu 01:03:00 PM 54.2632 -52.5707 228° Southwest  Level Estimated
Thu 01:04:00 PM 54.1884 -52.7099 227° Southwest  Level Estimated
Thu 01:04:24 PM 53.4333 -53.5500 227° Southwest 400 460 38,000  Level Gander Center
Thu 01:05:00 PM 54.1135 -52.8485 227° Southwest  Level Estimated
Thu 01:05:24 PM 53.3333 -53.6833 219° Southwest 400 460 38,000  Level Gander Center
Thu 01:06:00 PM 54.0385 -52.9866 227° Southwest  Level Estimated
Thu 01:06:24 PM 53.2667 -53.8333 233° Southwest 400 460 38,000  Level Gander Center
Thu 01:07:00 PM 53.9632 -53.1243 227° Southwest  Level Estimated
Thu 01:07:24 PM 53.2000 -53.9667 230° Southwest 400 460 38,000  Level Gander Center
Thu 01:08:00 PM 53.8879 -53.2614 227° Southwest  Level Estimated
Thu 01:08:24 PM 53.1333 -54.1167 234° Southwest 400 460 38,000  Level Gander Center
Thu 01:09:00 PM 53.8123 -53.3981 227° Southwest  Level Estimated
Thu 01:09:24 PM 53.0500 -54.2667 227° Southwest 400 460 38,000  Level Gander Center
Thu 01:10:24 PM 52.9833 -54.3833 227° Southwest 400 460 38,000  Level Gander Center
Thu 01:11:24 PM 52.9167 -54.5333 234° Southwest 390 449 38,000  Level Gander Center
Thu 01:12:24 PM 52.8500 -54.6667 230° Southwest 390 449 38,000  Level Gander Center
Thu 01:13:24 PM 52.7667 -54.7833 220° Southwest 390 449 38,000  Level Gander Center
Thu 01:14:24 PM 52.7000 -54.9333 234° Southwest 390 449 38,000  Level Gander Center
Thu 01:15:24 PM 52.6333 -55.0833 234° Southwest 400 460 38,000  Level Gander Center
Thu 01:15:58 PM 52.5833 -55.1333 211° Southwest 400 460 38,000  Level Moncton Center
Thu 01:16:58 PM 52.5167 -55.2833 234° Southwest 400 460 38,000  Level Moncton Center
Thu 01:17:58 PM 52.4333 -55.4167 224° Southwest 400 460 38,000  Level Moncton Center
Thu 01:18:58 PM 52.3667 -55.5667 234° Southwest 400 460 38,000  Level Moncton Center
Thu 01:19:23 PM 52.3333 -55.6167 223° Southwest 400 460 38,000  Level Gander Center
Thu 01:19:58 PM 52.2833 -55.6833 219° Southwest 400 460 38,000  Level Moncton Center
Thu 01:20:58 PM 52.2167 -55.8333 234° Southwest 400 460 38,000  Level Moncton Center
Thu 01:21:58 PM 52.1500 -55.9667 231° Southwest 400 460 38,000  Level Moncton Center
Thu 01:22:23 PM 52.1167 -56.0167 223° Southwest 400 460 38,000  Level Gander Center
Thu 01:23:23 PM 52.0333 -56.1667 228° Southwest 400 460 38,000  Level Gander Center
Thu 01:23:58 PM 51.9833 -56.2333 219° Southwest 410 472 38,000  Level Moncton Center
Thu 01:24:24 PM 51.9500 -56.2833 223° Southwest 400 460 38,000  Level Gander Center
Thu 01:25:24 PM 51.8833 -56.4333 234° Southwest 400 460 38,000  Level Gander Center
Thu 01:26:24 PM 51.8000 -56.5500 221° Southwest 400 460 38,000  Level Gander Center
Thu 01:27:24 PM 51.7167 -56.6833 225° Southwest 400 460 38,000  Level Gander Center
Thu 01:28:24 PM 51.6333 -56.8333 228° Southwest 400 460 38,000  Level Gander Center
Thu 01:28:58 PM 51.6000 -56.9000 231° Southwest 400 460 38,000  Level Moncton Center
Thu 01:29:58 PM 51.5333 -57.0167 227° Southwest 400 460 38,000  Level Moncton Center
Thu 01:30:58 PM 51.4500 -57.1667 228° Southwest 400 460 38,000  Level Moncton Center
Thu 01:31:58 PM 51.3667 -57.2833 221° Southwest 400 460 38,000  Level Moncton Center
Thu 01:32:24 PM 51.3333 -57.3500 231° Southwest 410 472 38,000  Level Gander Center
Thu 01:33:24 PM 51.2667 -57.4833 231° Southwest 400 460 38,000  Level Gander Center
Thu 01:34:24 PM 51.1833 -57.6000 221° Southwest 400 460 38,000  Level Gander Center
Thu 01:35:23 PM 51.1167 -57.7333 231° Southwest 400 460 38,000  Level Gander Center
Thu 01:36:23 PM 51.0333 -57.8500 221° Southwest 400 460 38,000  Level Gander Center
Thu 01:37:23 PM 50.9667 -57.9833 232° Southwest 400 460 38,000  Level Gander Center
Thu 01:37:58 PM 50.9167 -58.0667 226° Southwest 400 460 38,000  Level Moncton Center
Thu 01:38:24 PM 50.8833 -58.1333 232° Southwest 400 460 38,000  Level Gander Center
Thu 01:39:24 PM 50.8000 -58.2333 217° Southwest 390 449 38,000  Level Gander Center
Thu 01:40:24 PM 50.7333 -58.3833 235° Southwest 390 449 38,000  Level Gander Center
Thu 01:41:24 PM 50.6500 -58.4833 217° Southwest 390 449 38,000  Level Gander Center
Thu 01:42:24 PM 50.5667 -58.6167 225° Southwest 400 460 38,000  Level Gander Center
Thu 01:43:24 PM 50.5167 -58.7333 236° Southwest 390 449 38,000  Level Gander Center
Thu 01:44:24 PM 50.4333 -58.8667 226° Southwest 400 460 38,000  Level Gander Center
Thu 01:44:58 PM 50.3833 -58.9333 220° Southwest 400 460 38,000  Level Moncton Center
Thu 01:45:24 PM 50.3500 -58.9833 224° Southwest 400 460 38,000  Level Gander Center
Thu 01:46:24 PM 50.2667 -59.1167 226° Southwest 400 460 38,000  Level Gander Center
Thu 01:47:24 PM 50.1833 -59.2167 218° Southwest 400 460 38,000  Level Gander Center
Thu 01:48:24 PM 50.1000 -59.3500 226° Southwest 400 460 38,000  Level Gander Center
Thu 01:49:24 PM 50.0333 -59.4833 232° Southwest 400 460 38,000  Level Gander Center
Thu 01:50:24 PM 49.9500 -59.6000 222° Southwest 390 449 38,000  Level Gander Center
Thu 01:50:58 PM 49.9167 -59.6667 232° Southwest 400 460 38,000  Level Moncton Center
Thu 01:51:24 PM 49.8667 -59.7333 221° Southwest 400 460 38,000  Level Gander Center
Thu 01:51:58 PM 49.8333 -59.7833 224° Southwest 400 460 38,000  Level Moncton Center
Thu 01:52:58 PM 49.7500 -59.9167 226° Southwest 400 460 38,000  Level Moncton Center
Thu 01:53:24 PM 49.7333 -59.9667 243° Southwest 400 460 38,000  Level Gander Center
Thu 01:54:24 PM 49.6500 -60.0667 218° Southwest 400 460 38,000  Level Gander Center
Thu 01:54:58 PM 49.6000 -60.1333 221° Southwest 400 460 38,000  Level Moncton Center
Thu 01:55:58 PM 49.5167 -60.2667 226° Southwest 400 460 38,000  Level Moncton Center
Thu 01:56:58 PM 49.4333 -60.3833 222° Southwest 400 460 38,000  Level Moncton Center
Thu 01:57:58 PM 49.3667 -60.5167 233° Southwest 400 460 38,000  Level Moncton Center
Thu 01:58:24 PM 49.3333 -60.5667 224° Southwest 400 460 38,000  Level Gander Center
Thu 01:59:24 PM 49.2333 -60.7000 221° Southwest 400 460 38,000  Level Gander Center
Thu 01:59:58 PM 49.2000 -60.7500 224° Southwest 400 460 38,000  Level Moncton Center
Thu 02:00:58 PM 49.1167 -60.8667 223° Southwest 400 460 38,000  Level Moncton Center
Thu 02:01:58 PM 49.0333 -60.9667 218° Southwest 400 460 38,000  Level Moncton Center
Thu 02:02:58 PM 48.9667 -61.1000 233° Southwest 400 460 38,000  Level Moncton Center
Thu 02:03:58 PM 48.8833 -61.2167 223° Southwest 400 460 38,000  Level Moncton Center
Thu 02:04:24 PM 48.8333 -61.2833 221° Southwest 400 460 38,000  Level Gander Center
Thu 02:05:24 PM 48.7667 -61.3833 225° Southwest 400 460 38,000  Level Gander Center
Thu 02:05:58 PM 48.7167 -61.4500 221° Southwest 400 460 38,000  Level Moncton Center
Thu 02:06:58 PM 48.6333 -61.5833 227° Southwest 400 460 38,000  Level Moncton Center
Thu 02:07:58 PM 48.5500 -61.6833 218° Southwest 410 472 38,000  Level Moncton Center
Thu 02:08:58 PM 48.4500 -61.8167 222° Southwest 400 460 38,000  Level Moncton Center
Thu 02:09:58 PM 48.3833 -61.9333 229° Southwest 410 472 38,000  Level Moncton Center
Thu 02:10:58 PM 48.3000 -62.0333 219° Southwest 410 472 38,000  Level Moncton Center
Thu 02:11:58 PM 48.2167 -62.1667 227° Southwest 410 472 38,000  Level Moncton Center
Thu 02:12:58 PM 48.1333 -62.2667 219° Southwest 410 472 38,000  Level Moncton Center
Thu 02:13:24 PM 48.1167 -62.3333 249° West 410 472 38,000  Level Gander Center
Thu 02:14:24 PM 48.0167 -62.4500 218° Southwest 410 472 38,000  Level Gander Center
Thu 02:15:58 PM 47.9000 -62.6500 229° Southwest 410 472 38,000  Level Moncton Center
Thu 02:16:58 PM 47.8167 -62.7833 227° Southwest 410 472 38,000  Level Moncton Center
Thu 02:17:58 PM 47.7500 -62.9000 230° Southwest 410 472 38,000  Level Moncton Center
Thu 02:18:58 PM 47.6833 -63.0333 233° Southwest 410 472 38,000  Level Moncton Center
Thu 02:19:58 PM 47.6167 -63.1500 230° Southwest 410 472 38,000  Level Moncton Center
Thu 02:20:58 PM 47.5333 -63.2833 227° Southwest 410 472 38,000  Level Moncton Center
Thu 02:21:58 PM 47.4500 -63.4000 223° Southwest 400 460 38,000  Level Moncton Center
Thu 02:22:58 PM 47.3667 -63.5333 227° Southwest 410 472 38,000  Level Moncton Center
Thu 02:23:58 PM 47.3000 -63.6500 230° Southwest 410 472 38,000  Level Moncton Center
Thu 02:24:58 PM 47.2167 -63.7833 227° Southwest 410 472 38,000  Level Moncton Center
Thu 02:25:58 PM 47.1333 -63.9000 224° Southwest 410 472 38,000  Level Moncton Center
Thu 02:26:58 PM 47.0667 -64.0333 234° Southwest 420 483 38,000  Level Moncton Center
Thu 02:27:58 PM 46.9833 -64.1500 224° Southwest 420 483 38,000  Level Moncton Center
Thu 02:28:58 PM 46.9000 -64.2667 224° Southwest 410 472 38,000  Level Moncton Center
Thu 02:29:58 PM 46.8167 -64.4000 228° Southwest 420 483 38,000  Level Moncton Center
Thu 02:35:47 PM 46.3730 -65.1170 228° Southwest 419 482 38,000  Level FlightAware ADS-B
Thu 02:36:32 PM 46.3100 -65.2130 226° Southwest 420 483 38,000  Level FlightAware ADS-B
Thu 02:37:12 PM 46.2680 -65.2750 226° Southwest 420 483 38,000  Level FlightAware ADS-B
Thu 02:37:52 PM 46.2020 -65.3740 226° Southwest 421 484 38,000  Level FlightAware ADS-B
Thu 02:38:37 PM 46.1450 -65.4600 226° Southwest 421 484 38,000  Level FlightAware ADS-B
Thu 02:39:17 PM 46.0860 -65.5490 226° Southwest 420 483 38,000  Level FlightAware ADS-B
Thu 02:40:02 PM 46.0240 -65.6400 226° Southwest 420 483 38,000  Level FlightAware ADS-B
Thu 02:40:42 PM 45.9710 -65.7180 226° Southwest 419 482 38,000  Level FlightAware ADS-B
Thu 02:41:27 PM 45.9130 -65.8050 226° Southwest 418 481 38,000  Level FlightAware ADS-B
Thu 02:42:07 PM 45.8580 -65.8860 226° Southwest 417 480 38,000  Level FlightAware ADS-B
Thu 02:42:47 PM 45.8030 -65.9670 226° Southwest 417 480 38,000  Level FlightAware ADS-B
Thu 02:43:32 PM 45.7400 -66.0580 225° Southwest 418 481 38,000  Level FlightAware ADS-B
Thu 02:44:12 PM 45.6870 -66.1350 225° Southwest 418 481 38,000  Level FlightAware ADS-B
Thu 02:44:57 PM 45.6270 -66.2230 226° Southwest 417 480 38,000  Level FlightAware ADS-B
Thu 02:45:37 PM 45.5760 -66.2970 225° Southwest 417 480 38,000  Level FlightAware ADS-B
Thu 02:46:17 PM 45.5170 -66.3820 225° Southwest 418 481 38,000  Level FlightAware ADS-B
Thu 02:47:02 PM 45.4570 -66.4690 226° Southwest 418 481 38,000  Level FlightAware ADS-B
Thu 02:47:42 PM 45.4030 -66.5470 225° Southwest 417 480 38,000  Level FlightAware ADS-B
Thu 02:48:27 PM 45.3430 -66.6330 225° Southwest 419 482 38,000  Level FlightAware ADS-B
Thu 02:49:07 PM 45.2880 -66.7110 225° Southwest 420 483 38,000  Level FlightAware ADS-B
Thu 02:49:52 PM 45.2290 -66.7960 225° Southwest 422 486 38,000  Level FlightAware ADS-B
Thu 02:50:32 PM 45.1710 -66.8780 225° Southwest 424 488 38,000  Level FlightAware ADS-B
Thu 02:51:12 PM 45.1150 -66.9570 225° Southwest 424 488 38,000  Level FlightAware ADS-B
Thu 02:51:57 PM 45.0550 -67.0420 225° Southwest 419 482 38,000  Level FlightAware ADS-B
Thu 02:52:37 PM 45.0000 -67.1190 225° Southwest 416 479 38,000  Level FlightAware ADS-B
Thu 02:53:22 PM 44.9410 -67.2050 226° Southwest 417 480 38,000  Level FlightAware ADS-B
Thu 02:54:02 PM 44.8990 -67.3030 239° Southwest 423 487 38,000  Level FlightAware ADS-B
Thu 02:54:42 PM 44.8600 -67.3990 240° Southwest 422 486 38,000  Level FlightAware ADS-B
Thu 02:55:27 PM 44.8140 -67.5080 239° Southwest 418 481 38,000  Level FlightAware ADS-B
Thu 02:56:07 PM 44.7750 -67.5990 239° Southwest 418 481 38,000  Level FlightAware ADS-B
Thu 02:56:52 PM 44.7300 -67.7040 239° Southwest 417 480 38,000  Level FlightAware ADS-B
Thu 02:57:32 PM 44.6900 -67.8000 240° Southwest 416 479 38,000  Level FlightAware ADS-B
Thu 02:58:12 PM 44.6500 -67.8920 239° Southwest 416 479 38,000  Level FlightAware ADS-B
Thu 02:58:57 PM 44.6050 -67.9960 239° Southwest 414 476 38,000  Level FlightAware ADS-B
Thu 02:59:37 PM 44.5650 -68.0910 239° Southwest 416 479 38,000  Level FlightAware ADS-B
Thu 03:00:22 PM 44.5190 -68.1970 239° Southwest 417 480 38,000  Level FlightAware ADS-B
Thu 03:01:02 PM 44.4790 -68.2880 238° Southwest 417 480 38,000  Level FlightAware ADS-B
Thu 03:01:42 PM 44.4390 -68.3790 238° Southwest 418 481 38,000  Level FlightAware ADS-B
Thu 03:02:27 PM 44.3920 -68.4870 239° Southwest 417 480 38,000  Level FlightAware ADS-B
Thu 03:03:07 PM 44.3520 -68.5770 238° Southwest 418 481 38,000  Level FlightAware ADS-B
Thu 03:03:52 PM 44.3060 -68.6840 239° Southwest 419 482 38,000  Level FlightAware ADS-B
Thu 03:04:32 PM 44.2660 -68.7730 238° Southwest 418 481 38,000  Level FlightAware ADS-B
Thu 03:05:12 PM 44.2240 -68.8690 239° Southwest 418 481 38,000  Level FlightAware ADS-B
Thu 03:05:52 PM 44.1860 -68.9550 238° Southwest 423 487 38,000  Level FlightAware ADS-B
Thu 03:06:37 PM 44.1360 -69.0660 238° Southwest 425 489 38,000  Level FlightAware ADS-B
Thu 03:07:17 PM 44.0930 -69.1620 238° Southwest 427 491 38,000  Level FlightAware ADS-B
Thu 03:08:02 PM 44.0480 -69.2630 238° Southwest 427 491 38,000  Level FlightAware ADS-B
Thu 03:08:42 PM 44.0050 -69.3580 238° Southwest 429 494 38,000  Level FlightAware ADS-B
Thu 03:09:27 PM 43.9560 -69.4660 238° Southwest 431 496 38,000  Level FlightAware ADS-B
Thu 03:10:07 PM 43.9140 -69.5580 238° Southwest 432 497 38,000  Level FlightAware ADS-B
Thu 03:10:52 PM 43.8670 -69.6630 238° Southwest 435 501 38,000  Level FlightAware ADS-B
Thu 03:11:32 PM 43.8240 -69.7570 238° Southwest 438 504 38,000  Level FlightAware ADS-B
Thu 03:12:12 PM 43.7810 -69.8500 237° Southwest 439 505 38,000  Level FlightAware ADS-B
Thu 03:12:57 PM 43.7310 -69.9600 238° Southwest 440 506 38,000  Level FlightAware ADS-B
Thu 03:13:37 PM 43.6890 -70.0510 237° Southwest 440 506 38,000  Level FlightAware ADS-B
Thu 03:14:22 PM 43.6380 -70.1610 237° Southwest 439 505 38,000  Level FlightAware ADS-B
Thu 03:15:02 PM 43.5950 -70.2530 237° Southwest 440 506 38,000  Level FlightAware ADS-B
Thu 03:15:42 PM 43.5500 -70.3480 237° Southwest 441 507 38,000  Level FlightAware ADS-B
Thu 03:16:27 PM 43.5010 -70.4530 237° Southwest 441 507 38,000  Level FlightAware ADS-B
Thu 03:17:07 PM 43.4530 -70.5450 234° Southwest 439 505 38,000  Level FlightAware ADS-B
Thu 03:17:52 PM 43.3870 -70.6330 224° Southwest 439 505 38,000  Level FlightAware ADS-B
Thu 03:18:32 PM 43.3210 -70.6980 216° Southwest 439 505 38,000  Level FlightAware ADS-B
Thu 03:19:12 PM 43.2540 -70.7560 212° Southwest 441 507 38,000  Level FlightAware ADS-B
Thu 03:19:57 PM 43.1770 -70.8230 212° Southwest 442 509 38,000  Level FlightAware ADS-B
Thu 03:20:37 PM 43.1060 -70.8820 211° Southwest 445 512 38,000  Level FlightAware ADS-B
Thu 03:21:22 PM 43.0290 -70.9460 211° Southwest 446 513 38,000  Level FlightAware ADS-B
Thu 03:22:02 PM 42.9550 -71.0080 212° Southwest 446 513 38,000  Level FlightAware ADS-B
Thu 03:22:42 PM 42.8830 -71.0670 211° Southwest 448 516 38,000  Level FlightAware ADS-B
Thu 03:23:27 PM 42.8070 -71.1300 211° Southwest 449 517 38,000  Level FlightAware ADS-B
Thu 03:24:07 PM 42.7360 -71.1890 211° Southwest 445 512 38,000  Level FlightAware ADS-B
Thu 03:24:52 PM 42.6540 -71.2560 211° Southwest 444 511 38,000  Level FlightAware ADS-B
Thu 03:25:32 PM 42.5840 -71.3130 211° Southwest 444 511 38,000  Level FlightAware ADS-B
Thu 03:26:12 PM 42.5150 -71.3700 211° Southwest 443 510 38,000  Level FlightAware ADS-B
Thu 03:26:57 PM 42.4370 -71.4340 211° Southwest 445 512 38,000  Level FlightAware ADS-B
Thu 03:27:37 PM 42.3670 -71.4910 211° Southwest 446 513 38,000  Level FlightAware ADS-B
Thu 03:28:22 PM 42.2860 -71.5570 211° Southwest 446 513 38,000  Level FlightAware ADS-B
Thu 03:29:02 PM 42.2140 -71.6140 210° Southwest 446 513 38,000  Level FlightAware ADS-B
Thu 03:29:42 PM 42.1420 -71.6720 211° Southwest 449 517 38,000  Level FlightAware ADS-B
Thu 03:30:27 PM 42.0640 -71.7360 211° Southwest 450 518 38,000  Level FlightAware ADS-B
Thu 03:31:07 PM 41.9950 -71.7900 210° Southwest 450 518 38,000  Level FlightAware ADS-B
Thu 03:31:52 PM 41.9110 -71.8570 211° Southwest 448 516 38,000  Level FlightAware ADS-B
Thu 03:32:32 PM 41.8400 -71.9140 211° Southwest 448 516 38,000  Level FlightAware ADS-B
Thu 03:33:12 PM 41.7690 -71.9710 211° Southwest 447 514 38,000  Level FlightAware ADS-B
Thu 03:34:03 PM 41.6786 -72.0428 211° Southwest 452 520 38,000  Level Boston Center
Thu 03:39:32 PM 41.1100 -72.4880 211° Southwest 443 510 38,000  Level FlightAware ADS-B
Thu 03:40:12 PM 41.0340 -72.5460 210° Southwest 443 510 38,000  Level FlightAware ADS-B
Thu 03:40:23 PM 41.0046 -72.5690 211° Southwest 445 512 38,000  Level FlightAware ADS-B
Thu 03:40:54 PM 40.9481 -72.6127 210° Southwest 446 513 38,000  Level FlightAware ADS-B
Thu 03:41:28 PM 40.8882 -72.6588 210° Southwest 446 513 38,000  Level FlightAware ADS-B
Thu 03:42:02 PM 40.8285 -72.7047 210° Southwest 447 514 38,000  Level FlightAware ADS-B
Thu 03:42:32 PM 40.7744 -72.7461 210° Southwest 447 514 38,000  Level FlightAware ADS-B
Thu 03:43:04 PM 40.7176 -72.7896 210° Southwest 447 514 38,000  Level FlightAware ADS-B
Thu 03:43:44 PM 40.6447 -72.8452 210° Southwest 446 513 38,000  Level FlightAware ADS-B
Thu 03:44:16 PM 40.5881 -72.8884 210° Southwest 446 513 38,000  Level FlightAware ADS-B
Thu 03:45:12 PM 40.4930 -72.9600 210° Southwest 444 511 38,000  Level FlightAware ADS-B
Thu 03:45:25 PM 40.4650 -72.9819 211° Southwest 446 513 38,000  Level FlightAware ADS-B
Thu 03:46:04 PM 40.3970 -73.0334 210° Southwest 445 512 38,000  Level FlightAware ADS-B
Thu 03:46:45 PM 40.3228 -73.0894 210° Southwest 445 512 38,000  Level FlightAware ADS-B
Thu 03:47:18 PM 40.2640 -73.1336 210° Southwest 446 513 38,000  Level FlightAware ADS-B
Thu 03:47:49 PM 40.2086 -73.1751 210° Southwest 448 516 38,000  Level FlightAware ADS-B
Thu 03:48:27 PM 40.1402 -73.2265 210° Southwest 448 516 38,000  Level FlightAware ADS-B
Thu 03:49:10 PM 40.0671 -73.2898 214° Southwest 446 513 38,000  Level FlightAware ADS-B
Thu 03:49:25 PM 40.0433 -73.3157 220° Southwest 443 510 38,000  Level FlightAware ADS-B
Thu 03:49:54 PM 39.9981 -73.3674 221° Southwest 441 507 38,000  Level FlightAware ADS-B
Thu 03:50:26 PM 39.9500 -73.4223 221° Southwest 443 510 38,000  Level FlightAware ADS-B
Thu 03:51:02 PM 39.8943 -73.4846 221° Southwest 443 510 38,000  Level FlightAware ADS-B
Thu 03:51:36 PM 39.8410 -73.5441 221° Southwest 444 511 38,000  Level FlightAware ADS-B
Thu 03:52:06 PM 39.7934 -73.5969 220° Southwest 444 511 38,000  Level FlightAware ADS-B
Thu 03:52:37 PM 39.7451 -73.6505 220° Southwest 445 512 38,000  Level FlightAware ADS-B
Thu 03:53:09 PM 39.6957 -73.7053 220° Southwest 445 512 38,000  Level FlightAware ADS-B
Thu 03:53:41 PM 39.6460 -73.7604 220° Southwest 445 512 38,000  Level FlightAware ADS-B
Thu 03:54:13 PM 39.5952 -73.8166 220° Southwest 445 512 38,000  Level FlightAware ADS-B
Thu 03:54:43 PM 39.5478 -73.8688 220° Southwest 445 512 38,000  Level FlightAware ADS-B
Thu 03:55:16 PM 39.4968 -73.9249 220° Southwest 443 510 38,000  Level FlightAware ADS-B
Thu 03:55:47 PM 39.4492 -73.9770 220° Southwest 442 509 38,000  Level FlightAware ADS-B
Thu 03:56:18 PM 39.4009 -74.0300 220° Southwest 441 507 38,000  Level FlightAware ADS-B
Thu 03:56:48 PM 39.3535 -74.0818 220° Southwest 439 505 38,000  Level FlightAware ADS-B
Thu 03:57:19 PM 39.3062 -74.1334 220° Southwest 439 505 38,000  Level FlightAware ADS-B
Thu 03:58:09 PM 39.2274 -74.2192 220° Southwest 441 507 38,000  Level FlightAware ADS-B
Thu 03:58:40 PM 39.1801 -74.2705 220° Southwest 441 507 38,000  Level FlightAware ADS-B
Thu 03:59:10 PM 39.1331 -74.3216 220° Southwest 439 505 38,000  Level FlightAware ADS-B
Thu 03:59:41 PM 39.0851 -74.3735 220° Southwest 439 505 38,000  Level FlightAware ADS-B
Thu 04:00:12 PM 39.0368 -74.4256 220° Southwest 438 504 38,000  Level FlightAware ADS-B
Thu 04:00:50 PM 38.9787 -74.4883 220° Southwest 438 504 38,000  Level FlightAware ADS-B
Thu 04:01:20 PM 38.9310 -74.5395 220° Southwest 438 504 38,000  Level FlightAware ADS-B
Thu 04:01:51 PM 38.8840 -74.5899 220° Southwest 438 504 38,000  Level FlightAware ADS-B
Thu 04:02:48 PM 38.7944 -74.6857 220° Southwest 439 505 38,000  Level FlightAware ADS-B
Thu 04:03:18 PM 38.7473 -74.7362 220° Southwest 439 505 38,000  Level FlightAware ADS-B
Thu 04:03:54 PM 38.6929 -74.7944 220° Southwest 438 504 38,000  Level FlightAware ADS-B
Thu 04:04:27 PM 38.6402 -74.8503 220° Southwest 440 506 38,000  Level FlightAware ADS-B
Thu 04:04:58 PM 38.5920 -74.9014 220° Southwest 441 507 38,000  Level FlightAware ADS-B
Thu 04:05:34 PM 38.5357 -74.9611 220° Southwest 442 509 38,000  Level FlightAware ADS-B
Thu 04:06:17 PM 38.4720 -75.0290 220° Southwest 440 506 38,000  Level FlightAware ADS-B
Thu 04:06:52 PM 38.4130 -75.0907 219° Southwest 441 507 38,000  Level FlightAware ADS-B
Thu 04:07:26 PM 38.3610 -75.1455 220° Southwest 435 501 38,000  Level FlightAware ADS-B
Thu 04:07:57 PM 38.3127 -75.1963 220° Southwest 435 501 38,000  Level FlightAware ADS-B
Thu 04:08:57 PM 38.2220 -75.2920 220° Southwest 434 499 38,000  Level FlightAware ADS-B
Thu 04:09:42 PM 38.1550 -75.3610 219° Southwest 436 502 38,000  Level FlightAware ADS-B
Thu 04:10:12 PM 38.1080 -75.4100 219° Southwest 436 502 38,000  Level FlightAware ADS-B
Thu 04:10:42 PM 38.0552 -75.4630 218° Southwest 438 504 38,000  Level FlightAware ADS-B
Thu 04:10:58 PM 38.0278 -75.4850 212° Southwest 439 505 38,000  Level FlightAware ADS-B
Thu 04:11:42 PM 37.9540 -75.5410 211° Southwest 436 502 38,000  Level FlightAware ADS-B
Thu 04:13:07 PM 37.8060 -75.6538 211° Southwest 435 501 38,000  Level FlightAware ADS-B
Thu 04:13:38 PM 37.7505 -75.6955 211° Southwest 434 499 38,000  Level FlightAware ADS-B
Thu 04:14:10 PM 37.6962 -75.7364 211° Southwest 432 497 38,000  Level FlightAware ADS-B
Thu 04:14:41 PM 37.6419 -75.7771 211° Southwest 433 498 38,000  Level FlightAware ADS-B
Thu 04:17:02 PM 37.4090 -75.9240 207° Southwest 438 504 38,000  Level FlightAware ADS-B
Thu 04:17:26 PM 37.3448 -75.9595 204° Southwest 438 504 38,000  Level FlightAware ADS-B
Thu 04:17:58 PM 37.2852 -75.9915 203° Southwest 439 505 38,000  Level FlightAware ADS-B
Thu 04:18:29 PM 37.2277 -76.0222 203° Southwest 437 503 38,000  Level FlightAware ADS-B
Thu 04:19:02 PM 37.1667 -76.0546 203° Southwest 435 501 38,000  Level FlightAware ADS-B
Thu 04:19:32 PM 37.1109 -76.0844 203° Southwest 433 498 38,000  Level FlightAware ADS-B
Thu 04:20:02 PM 37.0546 -76.1143 203° Southwest 434 499 38,000  Level FlightAware ADS-B
Thu 04:20:42 PM 36.9815 -76.1531 203° Southwest 436 502 38,000  Level FlightAware ADS-B
Thu 04:21:16 PM 36.9187 -76.1873 204° Southwest 436 502 38,000  Level FlightAware ADS-B
Thu 04:21:51 PM 36.8572 -76.2313 210° Southwest 432 497 38,000  Level FlightAware ADS-B
Thu 04:24:37 PM 36.6020 -76.4640 216° Southwest 38,000  Level FlightAware ADS-B
Thu 04:25:47 PM 36.4870 -76.5690 216° Southwest 434 499 38,000  Level FlightAware ADS-B
Thu 04:26:27 PM 36.4320 -76.6180 216° Southwest 434 499 38,000  Level FlightAware ADS-B
Thu 04:27:07 PM 36.3770 -76.6680 216° Southwest 434 499 38,000  Level FlightAware ADS-B
Thu 04:27:47 PM 36.3210 -76.7180 216° Southwest 434 499 38,000  Level FlightAware ADS-B
Thu 04:28:27 PM 36.2660 -76.7680 216° Southwest 434 499 38,000  Level FlightAware ADS-B
Thu 04:29:17 PM 36.1970 -76.8300 216° Southwest 434 499 38,000  Level FlightAware ADS-B
Thu 04:29:57 PM 36.1420 -76.8800 216° Southwest 434 499 38,000  Level FlightAware ADS-B
Thu 04:30:37 PM 36.0870 -76.9290 216° Southwest 434 499 38,000  Level FlightAware ADS-B
Thu 04:31:17 PM 36.0310 -76.9790 216° Southwest 434 499 38,000  Level FlightAware ADS-B
Thu 04:31:57 PM 35.9760 -77.0290 216° Southwest 434 499 38,000  Level FlightAware ADS-B
Thu 04:32:47 PM 35.9070 -77.0910 216° Southwest 434 499 38,000  Level FlightAware ADS-B
Thu 04:33:27 PM 35.8520 -77.1400 216° Southwest 434 499 38,000  Level FlightAware ADS-B
Thu 04:34:07 PM 35.7970 -77.1900 216° Southwest 434 499 38,000  Level FlightAware ADS-B
Thu 04:34:47 PM 35.7420 -77.2390 216° Southwest 434 499 38,000  Level FlightAware ADS-B
Thu 04:35:17 PM 35.5178 -77.3017 216° Southwest 440 506 38,000  Level Washington Center
Thu 04:36:18 PM 35.4044 -77.3581 202° Southwest 440 506 38,000  Level Washington Center
Thu 04:37:19 PM 35.2889 -77.4139 202° Southwest 440 506 38,000  Level Washington Center
Thu 04:38:17 PM 35.1794 -77.4700 203° Southwest 440 506 38,000  Level Washington Center
Thu 04:39:17 PM 35.0639 -77.5256 201° Southwest 440 506 38,000  Level Washington Center
Thu 04:40:19 PM 34.9503 -77.5811 202° Southwest 440 506 38,000  Level Washington Center
Thu 04:41:17 PM 34.8367 -77.6367 202° Southwest 440 506 38,000  Level Washington Center
Thu 04:42:17 PM 34.7125 -77.7017 203° Southwest 440 506 38,000  Level Washington Center
Thu 04:43:18 PM 34.5989 -77.7569 202° Southwest 440 506 38,000  Level Washington Center
Thu 04:44:19 PM 34.4850 -77.8144 203° Southwest 440 506 38,000  Level Washington Center
Thu 04:51:22 PM 33.6280 -78.0830 203° Southwest 451 519 38,000  Level FlightAware ADS-B
Thu 04:51:57 PM 33.5610 -78.1020 193° South 451 519 38,000  Level FlightAware ADS-B
Thu 04:53:02 PM 33.4260 -78.1410 194° South 454 522 38,000  Level FlightAware ADS-B
Thu 04:54:17 PM 33.2750 -78.1840 193° South 454 522 38,000  Level FlightAware ADS-B
Thu 04:55:52 PM 33.0790 -78.2400 193° South 450 518 38,000  Level FlightAware ADS-B
Thu 05:00:07 PM 32.5590 -78.3860 193° South 458 527 38,000  Level FlightAware ADS-B
Thu 05:02:52 PM 32.2280 -78.4800 194° South 452 520 38,000  Level FlightAware ADS-B
Thu 05:03:32 PM 32.1590 -78.4990 193° South 452 520 38,000  Level FlightAware ADS-B
Thu 05:04:12 PM 32.0890 -78.5180 193° South 452 520 38,000  Level FlightAware ADS-B
Thu 05:04:52 PM 32.0200 -78.5370 193° South 452 520 38,000  Level FlightAware ADS-B
Thu 05:05:42 PM 31.9330 -78.5600 193° South 452 520 38,000  Level FlightAware ADS-B
Thu 05:06:22 PM 31.8640 -78.5790 193° South 452 520 38,000  Level FlightAware ADS-B
Thu 05:07:02 PM 31.7950 -78.5980 193° South 452 520 38,000  Level FlightAware ADS-B
Thu 05:07:42 PM 31.7260 -78.6170 193° South 452 520 38,000  Level FlightAware ADS-B
Thu 05:08:22 PM 31.6560 -78.6360 193° South 452 520 38,000  Level FlightAware ADS-B
Thu 05:09:02 PM 31.5870 -78.6540 193° South 452 520 38,000  Level FlightAware ADS-B
Thu 05:09:52 PM 31.5010 -78.6780 193° South 452 520 38,000  Level FlightAware ADS-B
Thu 05:10:37 PM 31.4310 -78.6970 193° South 452 520 38,000  Level FlightAware ADS-B
Thu 05:11:12 PM 31.3620 -78.7150 193° South 452 520 38,000  Level FlightAware ADS-B
Thu 05:12:02 PM 31.2750 -78.7390 193° South 452 520 38,000  Level FlightAware ADS-B
Thu 05:13:03 PM 30.9828 -78.8389 193° South 449 517 38,000  Level Jacksonville Center
Thu 05:14:03 PM 30.8650 -78.8728 194° South 449 517 38,000  Level Jacksonville Center
Thu 05:15:03 PM 30.7408 -78.9072 193° South 449 517 38,000  Level Jacksonville Center
Thu 05:16:03 PM 30.6228 -78.9411 194° South 455 524 38,000  Level Jacksonville Center
Thu 05:16:46 PM 30.5419 -78.9625 193° South 449 517 38,000  Level Miami Center
Thu 05:17:46 PM 30.4311 -78.9939 194° South 444 511 38,000  Level Miami Center
Thu 05:18:46 PM 30.3136 -79.0419 199° South 444 511 38,000  Level Miami Center
Thu 05:19:46 PM 30.2003 -79.0925 201° Southwest 444 511 38,000  Level Miami Center
Thu 05:20:46 PM 30.0806 -79.1428 200° South 450 518 38,000  Level Miami Center
Thu 05:21:46 PM 29.9714 -79.2003 205° Southwest 451 519 38,000  Level Miami Center
Thu 05:22:46 PM 29.8539 -79.2456 198° South 451 519 38,000  Level Miami Center
Thu 05:23:46 PM 29.7383 -79.2956 201° Southwest 451 519 38,000  Level Miami Center
Thu 05:24:46 PM 29.6247 -79.3481 202° Southwest 451 519 38,000  Level Miami Center
Thu 05:25:46 PM 29.5114 -79.3978 201° Southwest 451 519 38,000  Level Miami Center
Thu 05:26:46 PM 29.3936 -79.4450 199° South 451 519 38,000  Level Miami Center
Thu 05:27:46 PM 29.2781 -79.4947 201° Southwest 451 519 38,000  Level Miami Center
Thu 05:28:46 PM 29.1603 -79.5442 200° South 451 519 38,000  Level Miami Center
Thu 05:29:46 PM 29.0406 -79.5817 195° South 451 519 38,000  Level Miami Center
Thu 05:35:22 PM 28.3400 -79.7040 195° South 456 525 38,000  Level FlightAware ADS-B
Thu 05:37:12 PM 28.1090 -79.7450 189° South 459 528 38,000  Level FlightAware ADS-B
Thu 05:40:12 PM 27.7260 -79.8120 189° South 456 525 38,000  Level FlightAware ADS-B
Thu 05:41:17 PM 27.5880 -79.8370 189° South 457 526 38,000  Level FlightAware ADS-B
Thu 05:42:07 PM 27.4810 -79.8560 189° South 456 525 38,000  Level FlightAware ADS-B
Thu 05:43:02 PM 27.3660 -79.8760 189° South 456 525 38,000  Level FlightAware ADS-B
Thu 05:43:42 PM 27.2750 -79.8920 189° South 458 527 38,000  Level FlightAware ADS-B
Thu 05:44:27 PM 27.1850 -79.9080 189° South 458 527 38,000  Level FlightAware ADS-B
Thu 05:45:07 PM 27.1030 -79.9510 205° Southwest 455 524 38,000  Level FlightAware ADS-B
Thu 05:45:47 PM 27.0290 -79.9950 208° Southwest 456 525 38,000  Level FlightAware ADS-B
Thu 05:46:32 PM 26.9510 -80.0430 209° Southwest 458 527 38,000  Level FlightAware ADS-B
Thu 05:47:12 PM 26.8710 -80.0910 208° Southwest 458 527 38,000  Level FlightAware ADS-B
Thu 05:47:57 PM 26.7890 -80.1410 209° Southwest 459 528 38,000  Level FlightAware ADS-B
Thu 05:48:37 PM 26.7120 -80.1880 209° Southwest 458 527 38,000  Level FlightAware ADS-B
Thu 05:49:22 PM 26.6290 -80.2380 208° Southwest 458 527 38,000  Level FlightAware ADS-B
Thu 05:50:02 PM 26.5550 -80.2850 210° Southwest 455 524 38,000  Level FlightAware ADS-B
Thu 05:50:42 PM 26.4840 -80.3340 212° Southwest 454 522 38,000  Level FlightAware ADS-B
Thu 05:51:27 PM 26.4040 -80.3910 213° Southwest 454 522 38,000  Level FlightAware ADS-B
Thu 05:52:02 PM 26.3420 -80.4360 213° Southwest 444 511 38,000  Level FlightAware ADS-B
Thu 05:52:52 PM 26.2550 -80.4990 213° Southwest 441 507 38,000  Level FlightAware ADS-B
Thu 05:53:32 PM 26.1860 -80.5480 213° Southwest 443 510 38,000  Level FlightAware ADS-B
Thu 05:54:12 PM 26.1170 -80.5980 213° Southwest 441 507 38,000  Level FlightAware ADS-B
Thu 05:54:57 PM 26.0390 -80.6550 213° Southwest 441 507 38,000  Level FlightAware ADS-B
Thu 05:55:37 PM 25.9720 -80.7040 213° Southwest 442 509 38,000  Level FlightAware ADS-B
Thu 05:56:22 PM 25.8970 -80.7610 214° Southwest 442 509 38,000  Level FlightAware ADS-B
Thu 05:57:02 PM 25.8290 -80.8150 216° Southwest 435 501 38,000  Level FlightAware ADS-B
Thu 05:57:42 PM 25.7630 -80.8670 215° Southwest 439 505 38,000  Level FlightAware ADS-B
Thu 05:58:27 PM 25.6880 -80.9270 216° Southwest 437 503 38,000  Level FlightAware ADS-B
Thu 05:59:07 PM 25.6240 -80.9780 216° Southwest 432 497 38,000  Level FlightAware ADS-B
Thu 05:59:47 PM 25.5520 -81.0270 212° Southwest 439 505 38,000  Level FlightAware ADS-B
Thu 06:00:32 PM 25.4750 -81.0810 212° Southwest 441 507 38,000  Level FlightAware ADS-B
Thu 06:01:12 PM 25.4130 -81.1380 220° Southwest 436 502 38,000  Level FlightAware ADS-B
Thu 06:01:57 PM 25.3430 -81.2070 222° Southwest 439 505 38,000  Level FlightAware ADS-B
Thu 06:02:37 PM 25.2850 -81.2650 222° Southwest 433 498 38,000  Level FlightAware ADS-B
Thu 06:03:17 PM 25.2230 -81.3260 222° Southwest 435 501 38,000  Level FlightAware ADS-B
Thu 06:04:02 PM 25.1550 -81.3940 222° Southwest 434 499 38,000  Level FlightAware ADS-B
Thu 06:04:37 PM 25.1010 -81.4460 221° Southwest 433 498 38,000 -494 Level FlightAware ADS-B
Thu 06:05:27 PM 25.0260 -81.5210 222° Southwest 434 499 37,300 -933 Descending FlightAware ADS-B
Thu 06:06:07 PM 24.9660 -81.5800 222° Southwest 435 501 36,600 -975 Descending FlightAware ADS-B
Thu 06:06:47 PM 24.9040 -81.6400 221° Southwest 436 502 36,000 -1,412 Descending FlightAware ADS-B
Thu 06:07:32 PM 24.8350 -81.7080 222° Southwest 436 502 34,600 -1,976 Descending FlightAware ADS-B
Thu 06:08:12 PM 24.7740 -81.7680 222° Southwest 433 498 33,200 -1,920 Descending FlightAware ADS-B
Thu 06:08:47 PM 24.7210 -81.8190 221° Southwest 432 497 32,200 -1,650 Descending FlightAware ADS-B
Thu 06:09:32 PM 24.6590 -81.8800 222° Southwest 419 482 31,000 -1,667 Descending FlightAware ADS-B
Thu 06:10:17 PM 24.5940 -81.9440 222° Southwest 411 473 29,700 -1,694 Descending FlightAware ADS-B
Thu 06:10:57 PM 24.5360 -82.0010 222° Southwest 410 472 28,600 -1,380 Descending FlightAware ADS-B
Thu 06:11:57 PM 24.4460 -82.0880 221° Southwest 405 466 27,400 -939 Descending FlightAware ADS-B
Thu 06:12:52 PM 24.3770 -82.1550 221° Southwest 398 458 26,800 -379 Descending FlightAware ADS-B
Thu 06:13:32 PM 24.3300 -82.2010 222° Southwest 398 458 26,800  Level FlightAware ADS-B
Thu 06:14:12 PM 24.2840 -82.2470 222° Southwest 398 458 26,800  Level FlightAware ADS-B
Thu 06:14:52 PM 24.2370 -82.2930 222° Southwest 398 458 26,800  Level FlightAware ADS-B
Thu 06:15:42 PM 24.1790 -82.3510 222° Southwest 398 458 26,800  Level FlightAware ADS-B
Thu 06:16:22 PM 24.1330 -82.3970 222° Southwest 398 458 26,800 -4,969 Level FlightAware ADS-B
Thu 06:16:46 PM 24.0544 -82.4664 222° Southwest 395 455 21,500 -13,250 Descending Miami Center
Thu 06:18:00 PM 23.9377 -82.5078 173° South  Level FlightAware Approximate
Thu 06:25:00 PM 23.1294 -82.4159 170° South  Level FlightAware Approximate
Thu 06:26:00 PM 23.0145 -82.4000 180° South  Level FlightAware Approximate
Thu 06:27:00 PM 22.9891 -82.4091 180° South  Level Estimated
Thu 06:28:00 PM 22.9891 -82.4091 180° South  Level Estimated
Thu 06:29:00 PM 22.9891 -82.4091 180° South  Level Estimated
Thu 06:30:00 PM 22.9891 -82.4091 180° South  Level Estimated
Thu 06:31:00 PM 22.9891 -82.4091 180° South  Level Estimated
Thu 06:32:00 PM 22.9891 -82.4091 180° South  Level Estimated
Thu 06:33:00 PM 22.9891 -82.4091 180° South  Level Estimated
Thu 06:34:00 PM 22.9891 -82.4091 180° South  Level Estimated
Thu 06:35:00 PM 22.9891 -82.4091 180° South  Level Estimated
Thu 06:36:00 PM 22.9891 -82.4091 180° South  Level Estimated
Thu 06:37:00 PM 22.9891 -82.4091 180° South  Level Estimated
Thu 06:38:00 PM 22.9891 -82.4091 180° South  Level Estimated
Thu 06:39:00 PM 22.9891 -82.4091 180° South  Level Estimated
Thu 06:40:00 PM 22.9891 -82.4091 180° South  Level Estimated
Thu 06:41:00 PM 22.9891 -82.4091 180° South  Level Estimated
Thu 06:42:00 PM 22.9891 -82.4091 180° South  Level Estimated
Thu 06:43:00 PM 22.9891 -82.4091 180° South  Level Estimated
Thu 06:44:00 PM 22.9891 -82.4091 180° South  Level Estimated
Thu 06:45:00 PM 22.9891 -82.4091 180° South  Level Estimated
Thu 06:46:00 PM 22.9891 -82.4091 180° South  Level Estimated

Login

Don't have an account? Register now (free) for customized features, flight alerts, and more!